createdAt,value
2022-09-25T00:00:45.823Z,850.25
2022-09-25T00:01:45.878Z,850.24
2022-09-25T00:02:45.912Z,850.27
2022-09-25T00:03:45.793Z,850.27
2022-09-25T00:04:45.861Z,850.21
2022-09-25T00:05:45.814Z,850.21
2022-09-25T00:06:45.760Z,850.19
2022-09-25T00:07:45.753Z,850.24
2022-09-25T00:08:45.738Z,850.19
2022-09-25T00:09:45.727Z,850.22
2022-09-25T00:10:45.830Z,850.27
2022-09-25T00:11:45.706Z,850.27
2022-09-25T00:12:45.695Z,850.23
2022-09-25T00:13:45.683Z,850.30
2022-09-25T00:14:45.671Z,850.29
2022-09-25T00:15:45.658Z,850.34
2022-09-25T00:16:45.779Z,850.28
2022-09-25T00:17:45.637Z,850.29
2022-09-25T00:18:45.632Z,850.27
2022-09-25T00:19:45.615Z,850.30
2022-09-25T00:20:45.608Z,850.32
2022-09-25T00:21:45.599Z,850.31
2022-09-25T00:22:45.701Z,850.29
2022-09-25T00:23:45.579Z,850.28
2022-09-25T00:24:45.562Z,850.30
2022-09-25T00:25:45.611Z,850.27
2022-09-25T00:26:45.651Z,850.27
2022-09-25T00:27:45.595Z,850.25
2022-09-25T00:28:45.586Z,850.27
2022-09-25T00:29:45.504Z,850.28
2022-09-25T00:30:45.536Z,850.31
2022-09-25T00:31:45.484Z,850.26
2022-09-25T00:32:45.490Z,850.27
2022-09-25T00:33:45.565Z,850.28
2022-09-25T00:34:45.450Z,850.30
2022-09-25T00:35:45.439Z,850.25
2022-09-25T00:36:45.433Z,850.28
2022-09-25T00:37:45.421Z,850.25
2022-09-25T00:38:45.409Z,850.25
2022-09-25T00:39:45.492Z,850.27
2022-09-25T00:40:45.492Z,850.26
2022-09-25T00:41:45.373Z,850.25
2022-09-25T00:42:45.389Z,850.23
2022-09-25T00:43:45.351Z,850.25
2022-09-25T00:44:45.343Z,850.24
2022-09-25T00:45:45.464Z,850.20
2022-09-25T00:46:45.330Z,850.17
2022-09-25T00:47:45.333Z,850.16
2022-09-25T00:48:45.303Z,850.18
2022-09-25T00:49:45.298Z,850.17
2022-09-25T00:50:45.276Z,850.17
2022-09-25T00:51:45.342Z,850.13
2022-09-25T00:52:45.250Z,850.13
2022-09-25T00:53:45.241Z,850.12
2022-09-25T00:54:45.231Z,850.12
2022-09-25T00:55:45.221Z,850.10
2022-09-25T00:56:45.313Z,850.08
2022-09-25T00:57:45.261Z,850.05
2022-09-25T00:58:45.208Z,850.05
2022-09-25T00:59:45.198Z,850.00
2022-09-25T01:00:45.164Z,850.00
2022-09-25T01:01:45.240Z,849.99
2022-09-25T01:02:45.258Z,850.03
2022-09-25T01:03:45.129Z,850.01
2022-09-25T01:04:45.181Z,850.03
2022-09-25T01:05:45.111Z,850.02
2022-09-25T01:06:45.105Z,850.05
2022-09-25T01:07:45.107Z,850.03
2022-09-25T01:08:45.078Z,850.00
2022-09-25T01:09:45.067Z,850.01
2022-09-25T01:10:45.151Z,850.01
2022-09-25T01:11:45.046Z,849.92
2022-09-25T01:12:45.140Z,849.94
2022-09-25T01:13:45.022Z,849.93
2022-09-25T01:14:45.040Z,849.90
2022-09-25T01:15:45.001Z,849.92
2022-09-25T01:16:45.055Z,849.92
2022-09-25T01:17:44.983Z,849.87
2022-09-25T01:18:44.983Z,849.92
2022-09-25T01:19:45.170Z,849.91
2022-09-25T01:20:44.946Z,849.89
2022-09-25T01:21:44.935Z,849.89
2022-09-25T01:22:44.980Z,849.83
2022-09-25T01:23:45.136Z,849.83
2022-09-25T01:24:44.904Z,849.79
2022-09-25T01:25:44.898Z,849.79
2022-09-25T01:26:44.894Z,849.76
2022-09-25T01:27:44.894Z,849.76
2022-09-25T01:28:44.877Z,849.76
2022-09-25T01:29:44.849Z,849.79
2022-09-25T01:30:44.890Z,849.78
2022-09-25T01:31:44.825Z,849.77
2022-09-25T01:32:44.825Z,849.76
2022-09-25T01:33:44.805Z,849.77
2022-09-25T01:34:44.863Z,849.76
2022-09-25T01:35:44.784Z,849.72
2022-09-25T01:36:44.773Z,849.73
2022-09-25T01:37:44.758Z,849.72
2022-09-25T01:38:44.855Z,849.79
2022-09-25T01:39:44.738Z,849.77
2022-09-25T01:40:44.773Z,849.71
2022-09-25T01:41:44.719Z,849.71
2022-09-25T01:42:44.705Z,849.72
2022-09-25T01:43:44.692Z,849.72
2022-09-25T01:44:44.694Z,849.77
2022-09-25T01:45:44.754Z,849.68
2022-09-25T01:46:44.720Z,849.75
2022-09-25T01:47:44.652Z,849.71
2022-09-25T01:48:44.639Z,849.73
2022-09-25T01:49:44.650Z,849.74
2022-09-25T01:50:44.628Z,849.73
2022-09-25T01:51:44.606Z,849.73
2022-09-25T01:52:44.641Z,849.68
2022-09-25T01:53:47.791Z,849.64
2022-09-25T01:54:44.586Z,849.64
2022-09-25T01:55:44.564Z,849.66
2022-09-25T01:56:44.609Z,849.60
2022-09-25T01:57:44.544Z,849.56
2022-09-25T01:58:44.542Z,849.60
2022-09-25T01:59:44.581Z,849.64
2022-09-25T02:00:44.507Z,849.62
2022-09-25T02:01:44.583Z,849.63
2022-09-25T02:02:44.569Z,849.63
2022-09-25T02:03:44.475Z,849.63
2022-09-25T02:04:44.692Z,849.58
2022-09-25T02:05:44.465Z,849.59
2022-09-25T02:06:44.440Z,849.55
2022-09-25T02:07:44.497Z,849.53
2022-09-25T02:08:44.425Z,849.54
2022-09-25T02:09:44.414Z,849.52
2022-09-25T02:10:44.413Z,849.52
2022-09-25T02:11:44.383Z,849.46
2022-09-25T02:12:44.388Z,849.48
2022-09-25T02:13:44.363Z,849.51
2022-09-25T02:14:44.391Z,849.54
2022-09-25T02:15:44.345Z,849.51
2022-09-25T02:16:44.464Z,849.47
2022-09-25T02:17:44.321Z,849.55
2022-09-25T02:18:44.348Z,849.52
2022-09-25T02:19:44.303Z,849.49
2022-09-25T02:20:44.332Z,849.49
2022-09-25T02:21:44.274Z,849.47
2022-09-25T02:22:44.277Z,849.47
2022-09-25T02:23:44.254Z,849.42
2022-09-25T02:24:44.243Z,849.45
2022-09-25T02:25:44.441Z,849.39
2022-09-25T02:26:44.226Z,849.43
2022-09-25T02:27:44.248Z,849.44
2022-09-25T02:28:44.214Z,849.42
2022-09-25T02:29:44.190Z,849.46
2022-09-25T02:30:44.279Z,849.43
2022-09-25T02:31:44.166Z,849.45
2022-09-25T02:32:44.153Z,849.41
2022-09-25T02:33:44.412Z,849.44
2022-09-25T02:34:44.172Z,849.38
2022-09-25T02:35:44.129Z,849.36
2022-09-25T02:36:44.112Z,849.34
2022-09-25T02:37:44.106Z,849.36
2022-09-25T02:38:44.088Z,849.35
2022-09-25T02:39:44.160Z,849.34
2022-09-25T02:40:44.145Z,849.31
2022-09-25T02:41:44.058Z,849.31
2022-09-25T02:42:44.045Z,849.32
2022-09-25T02:43:44.037Z,849.34
2022-09-25T02:44:44.023Z,849.33
2022-09-25T02:45:44.171Z,849.33
2022-09-25T02:46:43.998Z,849.32
2022-09-25T02:47:43.992Z,849.32
2022-09-25T02:48:43.998Z,849.29
2022-09-25T02:49:43.971Z,849.30
2022-09-25T02:50:43.981Z,849.28
2022-09-25T02:51:44.007Z,849.30
2022-09-25T02:52:43.942Z,849.27
2022-09-25T02:53:43.937Z,849.25
2022-09-25T02:54:43.916Z,849.25
2022-09-25T02:55:43.915Z,849.24
2022-09-25T02:56:43.890Z,849.24
2022-09-25T02:57:43.974Z,849.23
2022-09-25T02:58:43.870Z,849.20
2022-09-25T02:59:43.863Z,849.19
2022-09-25T03:00:43.851Z,849.16
2022-09-25T03:01:43.915Z,849.15
2022-09-25T03:02:48.132Z,849.07
2022-09-25T03:03:44.882Z,849.13
2022-09-25T03:04:43.803Z,849.09
2022-09-25T03:05:43.801Z,849.13
2022-09-25T03:06:43.820Z,849.15
2022-09-25T03:07:43.769Z,849.15
2022-09-25T03:08:43.770Z,849.20
2022-09-25T03:09:43.758Z,849.24
2022-09-25T03:10:43.739Z,849.21
2022-09-25T03:11:43.808Z,849.22
2022-09-25T03:12:43.732Z,849.17
2022-09-25T03:13:43.704Z,849.25
2022-09-25T03:14:43.698Z,849.21
2022-09-25T03:15:43.704Z,849.26
2022-09-25T03:16:43.722Z,849.25
2022-09-25T03:17:43.721Z,849.25
2022-09-25T03:18:43.665Z,849.26
2022-09-25T03:19:43.642Z,849.30
2022-09-25T03:20:43.640Z,849.29
2022-09-25T03:21:43.676Z,849.33
2022-09-25T03:22:43.634Z,849.24
2022-09-25T03:23:43.603Z,849.21
2022-09-25T03:24:43.596Z,849.17
2022-09-25T03:25:48.997Z,849.13
2022-09-25T03:26:44.564Z,849.18
2022-09-25T03:27:43.623Z,849.17
2022-09-25T03:28:43.542Z,849.22
2022-09-25T03:29:43.551Z,849.17
2022-09-25T03:30:43.567Z,849.18
2022-09-25T03:31:43.507Z,849.19
2022-09-25T03:32:43.501Z,849.19
2022-09-25T03:33:43.553Z,849.20
2022-09-25T03:34:43.491Z,849.21
2022-09-25T03:35:43.464Z,849.23
2022-09-25T03:36:43.452Z,849.21
2022-09-25T03:37:43.446Z,849.21
2022-09-25T03:38:43.456Z,849.23
2022-09-25T03:39:43.452Z,849.21
2022-09-25T03:40:43.545Z,849.21
2022-09-25T03:41:43.512Z,849.20
2022-09-25T03:42:43.389Z,849.17
2022-09-25T03:43:43.378Z,849.17
2022-09-25T03:44:43.378Z,849.15
2022-09-25T03:45:43.453Z,849.17
2022-09-25T03:46:43.348Z,849.16
2022-09-25T03:47:43.369Z,849.13
2022-09-25T03:48:43.338Z,849.05
2022-09-25T03:49:43.332Z,849.10
2022-09-25T03:50:43.300Z,849.06
2022-09-25T03:51:43.387Z,849.00
2022-09-25T03:52:43.293Z,849.02
2022-09-25T03:53:43.267Z,849.01
2022-09-25T03:54:43.287Z,848.99
2022-09-25T03:55:43.245Z,849.01
2022-09-25T03:56:43.248Z,849.02
2022-09-25T03:57:43.273Z,848.95
2022-09-25T03:58:43.213Z,849.01
2022-09-25T03:59:43.209Z,849.03
2022-09-25T04:00:43.189Z,849.08
2022-09-25T04:01:43.220Z,849.05
2022-09-25T04:02:43.277Z,849.09
2022-09-25T04:03:43.225Z,849.07
2022-09-25T04:04:43.148Z,849.02
2022-09-25T04:05:43.196Z,849.09
2022-09-25T04:06:43.124Z,849.00
2022-09-25T04:07:43.112Z,848.96
2022-09-25T04:08:43.224Z,848.92
2022-09-25T04:09:43.116Z,848.92
2022-09-25T04:10:43.119Z,848.90
2022-09-25T04:11:43.075Z,848.87
2022-09-25T04:12:43.056Z,848.88
2022-09-25T04:13:43.045Z,848.90
2022-09-25T04:14:43.052Z,848.91
2022-09-25T04:15:43.025Z,848.97
2022-09-25T04:16:43.179Z,848.98
2022-09-25T04:17:43.001Z,848.99
2022-09-25T04:18:43.206Z,849.02
2022-09-25T04:19:42.982Z,849.01
2022-09-25T04:20:42.990Z,849.02
2022-09-25T04:21:42.956Z,848.99
2022-09-25T04:22:43.028Z,848.98
2022-09-25T04:23:42.937Z,849.04
2022-09-25T04:24:42.926Z,849.07
2022-09-25T04:25:42.914Z,849.08
2022-09-25T04:26:43.113Z,849.07
2022-09-25T04:27:42.892Z,849.08
2022-09-25T04:28:42.955Z,849.11
2022-09-25T04:29:42.868Z,849.09
2022-09-25T04:30:42.868Z,849.09
2022-09-25T04:31:42.881Z,849.07
2022-09-25T04:32:42.849Z,849.07
2022-09-25T04:33:42.824Z,849.11
2022-09-25T04:34:42.896Z,849.12
2022-09-25T04:35:42.807Z,849.09
2022-09-25T04:36:43.007Z,849.09
2022-09-25T04:37:42.784Z,849.07
2022-09-25T04:38:42.784Z,849.06
2022-09-25T04:39:42.776Z,849.11
2022-09-25T04:40:42.908Z,849.09
2022-09-25T04:41:42.748Z,849.07
2022-09-25T04:42:42.840Z,849.15
2022-09-25T04:43:42.734Z,849.13
2022-09-25T04:44:42.746Z,849.15
2022-09-25T04:45:42.858Z,849.14
2022-09-25T04:46:42.772Z,849.13
2022-09-25T04:47:42.677Z,849.10
2022-09-25T04:48:42.664Z,849.14
2022-09-25T04:49:42.651Z,849.12
2022-09-25T04:50:42.660Z,849.12
2022-09-25T04:51:42.685Z,849.10
2022-09-25T04:52:42.626Z,849.08
2022-09-25T04:53:42.608Z,849.04
2022-09-25T04:54:42.598Z,849.09
2022-09-25T04:55:42.589Z,849.07
2022-09-25T04:56:42.589Z,849.11
2022-09-25T04:57:57.819Z,849.13
2022-09-25T04:58:43.632Z,849.14
2022-09-25T04:59:42.562Z,849.20
2022-09-25T05:00:42.530Z,849.17
2022-09-25T05:01:42.707Z,849.12
2022-09-25T05:02:42.685Z,849.15
2022-09-25T05:03:42.614Z,849.13
2022-09-25T05:04:43.271Z,849.17
2022-09-25T05:05:42.477Z,849.11
2022-09-25T05:06:42.478Z,849.15
2022-09-25T05:07:42.452Z,849.08
2022-09-25T05:08:42.442Z,849.11
2022-09-25T05:09:42.437Z,849.11
2022-09-25T05:10:42.518Z,849.11
2022-09-25T05:11:42.419Z,849.09
2022-09-25T05:12:42.399Z,849.08
2022-09-25T05:13:42.462Z,849.08
2022-09-25T05:14:42.403Z,849.12
2022-09-25T05:15:42.366Z,849.07
2022-09-25T05:16:42.452Z,849.05
2022-09-25T05:17:42.344Z,849.14
2022-09-25T05:18:42.431Z,849.12
2022-09-25T05:19:42.321Z,849.18
2022-09-25T05:20:42.314Z,849.16
2022-09-25T05:21:42.304Z,849.20
2022-09-25T05:22:42.354Z,849.23
2022-09-25T05:23:42.276Z,849.18
2022-09-25T05:24:42.386Z,849.20
2022-09-25T05:25:42.255Z,849.17
2022-09-25T05:26:42.257Z,849.21
2022-09-25T05:27:42.234Z,849.23
2022-09-25T05:28:42.226Z,849.21
2022-09-25T05:29:42.265Z,849.24
2022-09-25T05:30:42.235Z,849.21
2022-09-25T05:31:42.302Z,849.28
2022-09-25T05:32:42.218Z,849.25
2022-09-25T05:33:42.173Z,849.27
2022-09-25T05:34:42.157Z,849.26
2022-09-25T05:35:42.217Z,849.22
2022-09-25T05:36:42.132Z,849.21
2022-09-25T05:37:42.126Z,849.25
2022-09-25T05:38:42.126Z,849.22
2022-09-25T05:39:42.106Z,849.21
2022-09-25T05:40:42.182Z,849.22
2022-09-25T05:41:42.167Z,849.15
2022-09-25T05:42:42.071Z,849.17
2022-09-25T05:43:42.056Z,849.16
2022-09-25T05:44:42.082Z,849.14
2022-09-25T05:45:42.056Z,849.12
2022-09-25T05:46:42.110Z,849.12
2022-09-25T05:47:42.109Z,849.17
2022-09-25T05:48:42.026Z,849.21
2022-09-25T05:49:42.014Z,849.19
2022-09-25T05:50:41.988Z,849.24
2022-09-25T05:51:41.973Z,849.22
2022-09-25T05:52:41.955Z,849.22
2022-09-25T05:53:42.010Z,849.22
2022-09-25T05:54:41.940Z,849.26
2022-09-25T05:55:41.934Z,849.22
2022-09-25T05:56:41.913Z,849.24
2022-09-25T05:57:41.900Z,849.24
2022-09-25T05:58:41.895Z,849.30
2022-09-25T05:59:41.883Z,849.26
2022-09-25T06:00:41.941Z,849.30
2022-09-25T06:01:41.930Z,849.25
2022-09-25T06:02:42.045Z,849.26
2022-09-25T06:03:41.840Z,849.29
2022-09-25T06:04:41.823Z,849.26
2022-09-25T06:05:41.815Z,849.27
2022-09-25T06:06:41.876Z,849.26
2022-09-25T06:07:41.803Z,849.23
2022-09-25T06:08:41.782Z,849.24
2022-09-25T06:09:41.771Z,849.23
2022-09-25T06:10:41.763Z,849.22
2022-09-25T06:11:41.750Z,849.20
2022-09-25T06:12:41.814Z,849.18
2022-09-25T06:13:41.810Z,849.17
2022-09-25T06:14:41.713Z,849.17
2022-09-25T06:15:41.895Z,849.15
2022-09-25T06:16:41.691Z,849.15
2022-09-25T06:17:41.681Z,849.10
2022-09-25T06:18:41.725Z,849.13
2022-09-25T06:19:41.671Z,849.16
2022-09-25T06:20:41.645Z,849.13
2022-09-25T06:21:41.636Z,849.15
2022-09-25T06:22:41.628Z,849.14
2022-09-25T06:23:41.656Z,849.16
2022-09-25T06:24:41.690Z,849.13
2022-09-25T06:25:41.592Z,849.11
2022-09-25T06:26:41.586Z,849.14
2022-09-25T06:27:41.572Z,849.13
2022-09-25T06:28:41.567Z,849.12
2022-09-25T06:29:41.547Z,849.10
2022-09-25T06:30:41.561Z,849.10
2022-09-25T06:31:41.634Z,849.07
2022-09-25T06:32:41.518Z,849.07
2022-09-25T06:33:41.548Z,849.08
2022-09-25T06:34:41.528Z,849.04
2022-09-25T06:35:41.498Z,849.01
2022-09-25T06:36:41.517Z,849.03
2022-09-25T06:37:41.469Z,849.07
2022-09-25T06:38:41.564Z,849.00
2022-09-25T06:39:41.438Z,849.05
2022-09-25T06:40:41.969Z,849.02
2022-09-25T06:41:41.462Z,849.02
2022-09-25T06:42:41.414Z,849.02
2022-09-25T06:43:41.395Z,848.99
2022-09-25T06:44:41.407Z,848.97
2022-09-25T06:45:41.379Z,848.97
2022-09-25T06:46:41.469Z,848.96
2022-09-25T06:47:41.413Z,848.99
2022-09-25T06:48:41.341Z,848.92
2022-09-25T06:49:41.327Z,848.90
2022-09-25T06:50:41.366Z,848.96
2022-09-25T06:51:41.308Z,848.90
2022-09-25T06:52:41.299Z,848.96
2022-09-25T06:53:41.385Z,848.92
2022-09-25T06:54:44.228Z,848.91
2022-09-25T06:55:41.266Z,848.97
2022-09-25T06:56:41.261Z,848.93
2022-09-25T06:57:41.239Z,848.95
2022-09-25T06:58:41.231Z,848.91
2022-09-25T06:59:41.266Z,848.93
2022-09-25T07:00:41.206Z,848.97
2022-09-25T07:01:41.287Z,848.96
2022-09-25T07:02:41.258Z,848.92
2022-09-25T07:03:41.171Z,848.96
2022-09-25T07:04:41.163Z,848.95
2022-09-25T07:05:41.202Z,848.90
2022-09-25T07:06:41.174Z,848.91
2022-09-25T07:07:41.137Z,848.88
2022-09-25T07:08:41.117Z,848.91
2022-09-25T07:09:41.105Z,848.90
2022-09-25T07:10:45.599Z,848.90
2022-09-25T07:11:41.153Z,848.90
2022-09-25T07:12:41.069Z,848.91
2022-09-25T07:13:41.061Z,848.94
2022-09-25T07:14:41.050Z,848.95
2022-09-25T07:15:41.098Z,848.97
2022-09-25T07:16:41.036Z,848.93
2022-09-25T07:17:41.086Z,848.93
2022-09-25T07:18:41.012Z,848.96
2022-09-25T07:19:41.001Z,848.91
2022-09-25T07:20:40.983Z,848.87
2022-09-25T07:21:40.976Z,848.89
2022-09-25T07:22:40.997Z,848.90
2022-09-25T07:23:41.016Z,848.91
2022-09-25T07:24:40.941Z,848.90
2022-09-25T07:25:40.930Z,848.90
2022-09-25T07:26:43.192Z,848.94
2022-09-25T07:27:40.910Z,848.94
2022-09-25T07:28:40.965Z,848.88
2022-09-25T07:29:40.997Z,848.90
2022-09-25T07:30:41.015Z,848.90
2022-09-25T07:31:40.996Z,848.91
2022-09-25T07:32:40.858Z,848.90
2022-09-25T07:33:40.850Z,848.87
2022-09-25T07:34:40.847Z,848.86
2022-09-25T07:35:40.830Z,848.89
2022-09-25T07:36:40.861Z,848.82
2022-09-25T07:37:40.805Z,848.82
2022-09-25T07:38:40.822Z,848.80
2022-09-25T07:39:40.880Z,848.83
2022-09-25T07:40:40.811Z,848.81
2022-09-25T07:41:40.755Z,848.82
2022-09-25T07:42:40.803Z,848.76
2022-09-25T07:43:40.779Z,848.76
2022-09-25T07:44:44.671Z,848.76
2022-09-25T07:45:41.721Z,848.76
2022-09-25T07:46:40.748Z,848.74
2022-09-25T07:47:40.689Z,848.72
2022-09-25T07:48:40.763Z,848.74
2022-09-25T07:49:40.665Z,848.74
2022-09-25T07:50:40.652Z,848.71
2022-09-25T07:51:40.644Z,848.71
2022-09-25T07:52:40.633Z,848.71
2022-09-25T07:53:40.627Z,848.68
2022-09-25T07:54:40.681Z,848.68
2022-09-25T07:55:40.596Z,848.70
2022-09-25T07:56:40.586Z,848.72
2022-09-25T07:57:40.597Z,848.73
2022-09-25T07:58:40.562Z,848.72
2022-09-25T07:59:40.558Z,848.71
2022-09-25T08:00:40.621Z,848.75
2022-09-25T08:01:44.189Z,848.71
2022-09-25T08:02:41.567Z,848.75
2022-09-25T08:03:40.511Z,848.77
2022-09-25T08:04:40.510Z,848.72
2022-09-25T08:05:40.516Z,848.78
2022-09-25T08:06:40.481Z,848.80
2022-09-25T08:07:40.466Z,848.85
2022-09-25T08:08:40.480Z,848.84
2022-09-25T08:09:40.540Z,848.83
2022-09-25T08:10:40.543Z,848.86
2022-09-25T08:11:40.423Z,848.84
2022-09-25T08:12:40.461Z,848.75
2022-09-25T08:13:40.403Z,848.74
2022-09-25T08:14:40.404Z,848.76
2022-09-25T08:15:40.469Z,848.79
2022-09-25T08:16:40.462Z,848.71
2022-09-25T08:17:40.363Z,848.75
2022-09-25T08:18:40.362Z,848.74
2022-09-25T08:19:40.346Z,848.71
2022-09-25T08:20:40.328Z,848.70
2022-09-25T08:21:40.385Z,848.72
2022-09-25T08:22:40.316Z,848.72
2022-09-25T08:23:42.900Z,848.71
2022-09-25T08:24:41.279Z,848.71
2022-09-25T08:25:40.283Z,848.70
2022-09-25T08:26:40.285Z,848.71
2022-09-25T08:27:40.301Z,848.68
2022-09-25T08:28:40.237Z,848.73
2022-09-25T08:29:40.242Z,848.73
2022-09-25T08:30:40.291Z,848.73
2022-09-25T08:31:40.247Z,848.69
2022-09-25T08:32:40.195Z,848.68
2022-09-25T08:33:40.246Z,848.71
2022-09-25T08:34:41.653Z,848.71
2022-09-25T08:35:40.156Z,848.72
2022-09-25T08:36:40.151Z,848.78
2022-09-25T08:37:40.144Z,848.77
2022-09-25T08:38:40.215Z,848.78
2022-09-25T08:39:40.113Z,848.77
2022-09-25T08:40:44.431Z,848.77
2022-09-25T08:41:41.093Z,848.76
2022-09-25T08:42:40.105Z,848.76
2022-09-25T08:43:40.074Z,848.76
2022-09-25T08:44:40.086Z,848.77
2022-09-25T08:45:40.054Z,848.76
2022-09-25T08:46:40.090Z,848.76
2022-09-25T08:47:40.029Z,848.77
2022-09-25T08:48:40.026Z,848.81
2022-09-25T08:49:40.017Z,848.85
2022-09-25T08:50:40.198Z,848.80
2022-09-25T08:51:39.982Z,848.82
2022-09-25T08:52:39.973Z,848.79
2022-09-25T08:53:39.964Z,848.74
2022-09-25T08:54:42.143Z,848.77
2022-09-25T08:55:40.951Z,848.80
2022-09-25T08:56:39.950Z,848.76
2022-09-25T08:57:39.919Z,848.75
2022-09-25T08:58:39.935Z,848.65
2022-09-25T08:59:39.906Z,848.66
2022-09-25T09:00:39.899Z,848.68
2022-09-25T09:01:39.985Z,848.73
2022-09-25T09:02:39.999Z,848.64
2022-09-25T09:03:39.863Z,848.63
2022-09-25T09:04:39.851Z,848.65
2022-09-25T09:05:39.831Z,848.68
2022-09-25T09:06:39.839Z,848.65
2022-09-25T09:07:39.813Z,848.60
2022-09-25T09:08:39.873Z,848.56
2022-09-25T09:09:39.795Z,848.52
2022-09-25T09:10:39.777Z,848.57
2022-09-25T09:11:39.769Z,848.57
2022-09-25T09:12:39.777Z,848.55
2022-09-25T09:13:39.740Z,848.56
2022-09-25T09:14:39.762Z,848.51
2022-09-25T09:15:40.104Z,848.52
2022-09-25T09:16:39.715Z,848.51
2022-09-25T09:17:39.700Z,848.55
2022-09-25T09:18:39.691Z,848.49
2022-09-25T09:19:39.679Z,848.50
2022-09-25T09:20:39.726Z,848.47
2022-09-25T09:21:39.658Z,848.46
2022-09-25T09:22:39.645Z,848.47
2022-09-25T09:23:39.633Z,848.46
2022-09-25T09:24:39.622Z,848.43
2022-09-25T09:25:39.609Z,848.46
2022-09-25T09:26:39.674Z,848.42
2022-09-25T09:27:39.603Z,848.40
2022-09-25T09:28:39.580Z,848.44
2022-09-25T09:29:39.614Z,848.43
2022-09-25T09:30:39.642Z,848.39
2022-09-25T09:31:39.547Z,848.36
2022-09-25T09:32:39.586Z,848.37
2022-09-25T09:33:39.524Z,848.38
2022-09-25T09:35:04.033Z,848.36
2022-09-25T09:35:40.503Z,848.30
2022-09-25T09:36:39.494Z,848.32
2022-09-25T09:37:39.536Z,848.27
2022-09-25T09:38:39.484Z,848.27
2022-09-25T09:39:39.463Z,848.28
2022-09-25T09:40:39.549Z,848.23
2022-09-25T09:41:39.441Z,848.20
2022-09-25T09:42:39.434Z,848.26
2022-09-25T09:43:39.538Z,848.23
2022-09-25T09:44:39.405Z,848.28
2022-09-25T09:45:39.397Z,848.27
2022-09-25T09:46:39.633Z,848.25
2022-09-25T09:47:39.409Z,848.20
2022-09-25T09:48:39.379Z,848.18
2022-09-25T09:49:39.427Z,848.20
2022-09-25T09:50:42.873Z,848.14
2022-09-25T09:51:39.332Z,848.21
2022-09-25T09:52:39.315Z,848.19
2022-09-25T09:53:39.312Z,848.15
2022-09-25T09:54:39.390Z,848.12
2022-09-25T09:55:39.285Z,848.10
2022-09-25T09:56:39.271Z,848.10
2022-09-25T09:57:39.265Z,848.10
2022-09-25T09:58:39.253Z,848.08
2022-09-25T09:59:39.249Z,848.14
2022-09-25T10:00:39.276Z,848.16
2022-09-25T10:01:42.037Z,848.16
2022-09-25T10:02:39.393Z,848.16
2022-09-25T10:03:39.199Z,848.16
2022-09-25T10:04:39.190Z,848.20
2022-09-25T10:05:39.182Z,848.20
2022-09-25T10:06:39.211Z,848.23
2022-09-25T10:07:39.154Z,848.20
2022-09-25T10:08:39.356Z,848.18
2022-09-25T10:09:39.135Z,848.18
2022-09-25T10:10:39.136Z,848.20
2022-09-25T10:11:39.115Z,848.15
2022-09-25T10:12:39.165Z,848.15
2022-09-25T10:13:39.087Z,848.15
2022-09-25T10:14:39.079Z,848.20
2022-09-25T10:15:39.117Z,848.16
2022-09-25T10:16:39.068Z,848.18
2022-09-25T10:17:39.040Z,848.20
2022-09-25T10:18:39.061Z,848.18
2022-09-25T10:19:39.028Z,848.26
2022-09-25T10:20:39.014Z,848.25
2022-09-25T10:21:39.000Z,848.27
2022-09-25T10:22:39.006Z,848.23
2022-09-25T10:23:38.978Z,848.25
2022-09-25T10:24:39.030Z,848.26
2022-09-25T10:25:38.961Z,848.31
2022-09-25T10:26:38.966Z,848.31
2022-09-25T10:27:38.935Z,848.32
2022-09-25T10:28:38.945Z,848.30
2022-09-25T10:29:38.914Z,848.34
2022-09-25T10:30:38.922Z,848.38
2022-09-25T10:31:38.984Z,848.30
2022-09-25T10:32:38.883Z,848.30
2022-09-25T10:33:38.867Z,848.35
2022-09-25T10:34:38.879Z,848.35
2022-09-25T10:35:38.867Z,848.36
2022-09-25T10:36:38.837Z,848.39
2022-09-25T10:37:38.897Z,848.38
2022-09-25T10:38:38.823Z,848.37
2022-09-25T10:39:44.654Z,848.39
2022-09-25T10:40:39.855Z,848.38
2022-09-25T10:41:38.798Z,848.34
2022-09-25T10:42:38.775Z,848.32
2022-09-25T10:43:38.831Z,848.30
2022-09-25T10:44:38.751Z,848.36
2022-09-25T10:45:38.752Z,848.33
2022-09-25T10:46:38.857Z,848.34
2022-09-25T10:47:38.721Z,848.31
2022-09-25T10:48:38.707Z,848.29
2022-09-25T10:49:38.710Z,848.34
2022-09-25T10:50:38.794Z,848.34
2022-09-25T10:51:38.678Z,848.33
2022-09-25T10:52:38.669Z,848.25
2022-09-25T10:53:38.652Z,848.34
2022-09-25T10:54:44.396Z,848.34
2022-09-25T10:55:39.690Z,848.30
2022-09-25T10:56:38.635Z,848.31
2022-09-25T10:57:38.738Z,848.31
2022-09-25T10:58:38.605Z,848.32
2022-09-25T10:59:38.615Z,848.33
2022-09-25T11:00:38.572Z,848.35
2022-09-25T11:01:38.825Z,848.35
2022-09-25T11:02:38.609Z,848.32
2022-09-25T11:03:38.539Z,848.37
2022-09-25T11:04:38.544Z,848.35
2022-09-25T11:05:38.548Z,848.36
2022-09-25T11:06:38.531Z,848.39
2022-09-25T11:07:38.507Z,848.39
2022-09-25T11:08:38.496Z,848.43
2022-09-25T11:09:38.497Z,848.42
2022-09-25T11:10:38.466Z,848.36
2022-09-25T11:11:38.470Z,848.38
2022-09-25T11:12:38.511Z,848.40
2022-09-25T11:13:38.434Z,848.40
2022-09-25T11:14:38.436Z,848.41
2022-09-25T11:15:38.409Z,848.42
2022-09-25T11:16:38.458Z,848.38
2022-09-25T11:17:38.390Z,848.46
2022-09-25T11:18:38.451Z,848.41
2022-09-25T11:19:38.359Z,848.38
2022-09-25T11:20:38.376Z,848.38
2022-09-25T11:21:38.341Z,848.43
2022-09-25T11:22:38.357Z,848.43
2022-09-25T11:23:38.331Z,848.38
2022-09-25T11:24:38.369Z,848.37
2022-09-25T11:25:38.297Z,848.37
2022-09-25T11:26:38.299Z,848.43
2022-09-25T11:27:38.331Z,848.39
2022-09-25T11:28:38.272Z,848.40
2022-09-25T11:29:38.253Z,848.37
2022-09-25T11:30:38.350Z,848.37
2022-09-25T11:31:38.232Z,848.36
2022-09-25T11:32:38.228Z,848.32
2022-09-25T11:33:38.222Z,848.35
2022-09-25T11:34:38.209Z,848.33
2022-09-25T11:35:38.186Z,848.31
2022-09-25T11:36:38.233Z,848.25
2022-09-25T11:37:38.169Z,848.25
2022-09-25T11:38:38.180Z,848.28
2022-09-25T11:39:38.150Z,848.27
2022-09-25T11:40:38.225Z,848.28
2022-09-25T11:41:38.126Z,848.27
2022-09-25T11:42:38.111Z,848.27
2022-09-25T11:43:38.104Z,848.24
2022-09-25T11:44:38.087Z,848.25
2022-09-25T11:45:38.090Z,848.24
2022-09-25T11:46:38.066Z,848.23
2022-09-25T11:47:38.063Z,848.24
2022-09-25T11:48:38.101Z,848.16
2022-09-25T11:49:38.036Z,848.17
2022-09-25T11:50:38.020Z,848.19
2022-09-25T11:51:38.024Z,848.15
2022-09-25T11:52:38.000Z,848.18
2022-09-25T11:53:37.992Z,848.20
2022-09-25T11:54:38.378Z,848.15
2022-09-25T11:55:42.778Z,848.19
2022-09-25T11:56:38.970Z,848.16
2022-09-25T11:57:37.944Z,848.17
2022-09-25T11:58:37.991Z,848.14
2022-09-25T11:59:37.922Z,848.12
2022-09-25T12:00:37.964Z,848.15
2022-09-25T12:01:38.110Z,848.13
2022-09-25T12:02:37.972Z,848.13
2022-09-25T12:03:37.880Z,848.16
2022-09-25T12:04:41.329Z,848.14
2022-09-25T12:05:37.863Z,848.13
2022-09-25T12:06:37.933Z,848.13
2022-09-25T12:07:37.906Z,848.09
2022-09-25T12:08:37.831Z,848.06
2022-09-25T12:09:37.818Z,848.08
2022-09-25T12:10:37.878Z,848.05
2022-09-25T12:11:37.881Z,848.02
2022-09-25T12:12:37.803Z,848.05
2022-09-25T12:13:37.785Z,848.04
2022-09-25T12:14:37.764Z,848.02
2022-09-25T12:15:37.748Z,848.03
2022-09-25T12:16:37.870Z,848.02
2022-09-25T12:17:37.766Z,848.02
2022-09-25T12:18:37.730Z,848.04
2022-09-25T12:19:37.713Z,847.96
2022-09-25T12:20:37.750Z,847.95
2022-09-25T12:21:37.683Z,847.99
2022-09-25T12:22:37.689Z,847.94
2022-09-25T12:23:37.659Z,847.96
2022-09-25T12:24:37.652Z,847.95
2022-09-25T12:25:37.647Z,847.93
2022-09-25T12:26:37.667Z,847.94
2022-09-25T12:27:37.670Z,847.94
2022-09-25T12:28:37.604Z,847.90